sensor_id;sensor_type;location;lat;lon;timestamp;P1;durP1;ratioP1;P2;durP2;ratioP2
10094;SDS011;5086;50.830;7.102;2023-05-07T00:01:15;3.70;;;3.25;;
10094;SDS011;5086;50.830;7.102;2023-05-07T00:03:41;4.18;;;3.33;;
10094;SDS011;5086;50.830;7.102;2023-05-07T00:06:09;5.10;;;2.92;;
10094;SDS011;5086;50.830;7.102;2023-05-07T00:08:37;5.30;;;3.72;;
10094;SDS011;5086;50.830;7.102;2023-05-07T00:11:04;5.95;;;4.10;;
10094;SDS011;5086;50.830;7.102;2023-05-07T00:13:31;5.47;;;3.63;;
10094;SDS011;5086;50.830;7.102;2023-05-07T00:16:01;5.18;;;3.65;;
10094;SDS011;5086;50.830;7.102;2023-05-07T00:18:28;5.05;;;3.90;;
10094;SDS011;5086;50.830;7.102;2023-05-07T00:20:55;7.35;;;3.95;;
10094;SDS011;5086;50.830;7.102;2023-05-07T00:23:22;6.68;;;3.65;;
10094;SDS011;5086;50.830;7.102;2023-05-07T00:25:49;7.65;;;4.00;;
10094;SDS011;5086;50.830;7.102;2023-05-07T00:28:16;6.78;;;3.63;;
10094;SDS011;5086;50.830;7.102;2023-05-07T00:30:43;4.45;;;3.28;;
10094;SDS011;5086;50.830;7.102;2023-05-07T00:33:11;6.78;;;3.90;;
10094;SDS011;5086;50.830;7.102;2023-05-07T00:35:38;6.28;;;3.67;;
10094;SDS011;5086;50.830;7.102;2023-05-07T00:38:05;6.60;;;3.20;;
10094;SDS011;5086;50.830;7.102;2023-05-07T00:40:32;6.65;;;3.67;;
10094;SDS011;5086;50.830;7.102;2023-05-07T00:42:58;4.53;;;3.38;;
10094;SDS011;5086;50.830;7.102;2023-05-07T00:45:26;5.25;;;3.90;;
10094;SDS011;5086;50.830;7.102;2023-05-07T00:47:54;5.13;;;3.90;;
10094;SDS011;5086;50.830;7.102;2023-05-07T00:50:22;8.10;;;4.05;;
10094;SDS011;5086;50.830;7.102;2023-05-07T00:52:49;11.68;;;3.85;;
10094;SDS011;5086;50.830;7.102;2023-05-07T00:55:16;5.50;;;3.95;;
10094;SDS011;5086;50.830;7.102;2023-05-07T00:57:44;7.43;;;3.95;;
10094;SDS011;5086;50.830;7.102;2023-05-07T01:00:12;5.30;;;4.10;;
10094;SDS011;5086;50.830;7.102;2023-05-07T01:02:39;7.47;;;4.22;;
10094;SDS011;5086;50.830;7.102;2023-05-07T01:05:07;4.90;;;3.97;;
10094;SDS011;5086;50.830;7.102;2023-05-07T01:07:37;3.83;;;3.25;;
10094;SDS011;5086;50.830;7.102;2023-05-07T01:10:06;4.32;;;3.28;;
10094;SDS011;5086;50.830;7.102;2023-05-07T01:12:34;7.40;;;3.35;;
10094;SDS011;5086;50.830;7.102;2023-05-07T01:15:04;4.47;;;3.20;;
10094;SDS011;5086;50.830;7.102;2023-05-07T01:17:33;6.53;;;3.22;;
10094;SDS011;5086;50.830;7.102;2023-05-07T01:20:01;5.03;;;3.10;;
10094;SDS011;5086;50.830;7.102;2023-05-07T01:22:31;5.20;;;3.40;;
10094;SDS011;5086;50.830;7.102;2023-05-07T01:24:59;4.00;;;3.17;;
10094;SDS011;5086;50.830;7.102;2023-05-07T01:27:26;8.45;;;2.75;;
10094;SDS011;5086;50.830;7.102;2023-05-07T01:29:53;5.75;;;3.45;;
10094;SDS011;5086;50.830;7.102;2023-05-07T01:32:21;3.83;;;2.80;;
10094;SDS011;5086;50.830;7.102;2023-05-07T01:34:53;5.60;;;3.00;;
10094;SDS011;5086;50.830;7.102;2023-05-07T01:37:21;4.25;;;3.10;;
10094;SDS011;5086;50.830;7.102;2023-05-07T01:39:50;4.70;;;3.20;;
10094;SDS011;5086;50.830;7.102;2023-05-07T01:42:18;4.97;;;3.30;;
10094;SDS011;5086;50.830;7.102;2023-05-07T01:44:45;4.47;;;2.70;;
10094;SDS011;5086;50.830;7.102;2023-05-07T01:47:12;4.35;;;3.45;;
10094;SDS011;5086;50.830;7.102;2023-05-07T01:49:40;4.53;;;2.63;;
10094;SDS011;5086;50.830;7.102;2023-05-07T01:52:09;4.75;;;3.00;;
10094;SDS011;5086;50.830;7.102;2023-05-07T01:54:40;4.65;;;3.60;;
10094;SDS011;5086;50.830;7.102;2023-05-07T01:57:09;4.05;;;3.33;;
10094;SDS011;5086;50.830;7.102;2023-05-07T01:59:35;12.50;;;4.05;;
10094;SDS011;5086;50.830;7.102;2023-05-07T02:02:02;4.78;;;4.25;;
10094;SDS011;5086;50.830;7.102;2023-05-07T02:04:29;5.53;;;3.70;;
10094;SDS011;5086;50.830;7.102;2023-05-07T02:06:56;5.85;;;3.40;;
10094;SDS011;5086;50.830;7.102;2023-05-07T02:09:23;6.20;;;3.30;;
10094;SDS011;5086;50.830;7.102;2023-05-07T02:11:50;6.80;;;3.50;;
10094;SDS011;5086;50.830;7.102;2023-05-07T02:14:18;4.25;;;3.30;;
10094;SDS011;5086;50.830;7.102;2023-05-07T02:16:45;6.57;;;3.15;;
10094;SDS011;5086;50.830;7.102;2023-05-07T02:19:15;6.43;;;3.85;;
10094;SDS011;5086;50.830;7.102;2023-05-07T02:21:43;5.47;;;3.22;;
10094;SDS011;5086;50.830;7.102;2023-05-07T02:24:14;4.30;;;2.92;;
10094;SDS011;5086;50.830;7.102;2023-05-07T02:26:41;5.05;;;3.00;;
10094;SDS011;5086;50.830;7.102;2023-05-07T02:29:08;5.45;;;3.47;;
10094;SDS011;5086;50.830;7.102;2023-05-07T02:31:36;8.93;;;3.80;;
10094;SDS011;5086;50.830;7.102;2023-05-07T02:34:03;3.42;;;2.70;;
10094;SDS011;5086;50.830;7.102;2023-05-07T02:36:30;5.82;;;3.58;;
10094;SDS011;5086;50.830;7.102;2023-05-07T02:38:57;7.35;;;3.58;;
10094;SDS011;5086;50.830;7.102;2023-05-07T02:41:24;3.95;;;3.13;;
10094;SDS011;5086;50.830;7.102;2023-05-07T02:43:50;4.00;;;3.00;;
10094;SDS011;5086;50.830;7.102;2023-05-07T02:46:17;6.15;;;3.10;;
10094;SDS011;5086;50.830;7.102;2023-05-07T02:48:45;3.35;;;2.67;;
10094;SDS011;5086;50.830;7.102;2023-05-07T02:51:12;5.20;;;2.83;;
10094;SDS011;5086;50.830;7.102;2023-05-07T02:53:42;8.52;;;2.92;;
10094;SDS011;5086;50.830;7.102;2023-05-07T02:56:09;5.45;;;3.10;;
10094;SDS011;5086;50.830;7.102;2023-05-07T02:58:36;6.28;;;3.28;;
10094;SDS011;5086;50.830;7.102;2023-05-07T03:01:04;4.85;;;3.22;;
10094;SDS011;5086;50.830;7.102;2023-05-07T03:03:31;4.60;;;3.08;;
10094;SDS011;5086;50.830;7.102;2023-05-07T03:05:59;4.75;;;2.95;;
10094;SDS011;5086;50.830;7.102;2023-05-07T03:08:26;4.43;;;3.00;;
10094;SDS011;5086;50.830;7.102;2023-05-07T03:10:53;4.18;;;2.80;;
10094;SDS011;5086;50.830;7.102;2023-05-07T03:13:20;4.60;;;3.00;;
10094;SDS011;5086;50.830;7.102;2023-05-07T03:15:47;7.63;;;2.90;;
10094;SDS011;5086;50.830;7.102;2023-05-07T03:18:14;4.80;;;2.83;;
10094;SDS011;5086;50.830;7.102;2023-05-07T03:20:41;3.42;;;2.55;;
10094;SDS011;5086;50.830;7.102;2023-05-07T03:23:09;3.28;;;2.83;;
10094;SDS011;5086;50.830;7.102;2023-05-07T03:25:36;5.55;;;3.45;;
10094;SDS011;5086;50.830;7.102;2023-05-07T03:28:03;5.13;;;2.60;;
10094;SDS011;5086;50.830;7.102;2023-05-07T03:30:30;3.53;;;2.60;;
10094;SDS011;5086;50.830;7.102;2023-05-07T03:32:57;6.00;;;2.95;;
10094;SDS011;5086;50.830;7.102;2023-05-07T03:35:24;4.82;;;2.90;;
10094;SDS011;5086;50.830;7.102;2023-05-07T03:37:51;2.90;;;2.60;;
10094;SDS011;5086;50.830;7.102;2023-05-07T03:40:19;5.25;;;2.95;;
10094;SDS011;5086;50.830;7.102;2023-05-07T03:42:46;5.57;;;2.97;;
10094;SDS011;5086;50.830;7.102;2023-05-07T03:45:13;3.63;;;3.15;;
10094;SDS011;5086;50.830;7.102;2023-05-07T03:47:40;3.75;;;3.00;;
10094;SDS011;5086;50.830;7.102;2023-05-07T03:50:10;3.10;;;2.67;;
10094;SDS011;5086;50.830;7.102;2023-05-07T03:52:37;4.60;;;3.58;;
10094;SDS011;5086;50.830;7.102;2023-05-07T03:55:04;3.33;;;2.75;;
10094;SDS011;5086;50.830;7.102;2023-05-07T03:57:33;15.13;;;3.80;;
10094;SDS011;5086;50.830;7.102;2023-05-07T04:00:00;5.22;;;3.20;;
10094;SDS011;5086;50.830;7.102;2023-05-07T04:02:28;5.07;;;3.08;;
10094;SDS011;5086;50.830;7.102;2023-05-07T04:04:55;4.70;;;3.20;;
10094;SDS011;5086;50.830;7.102;2023-05-07T04:07:22;8.88;;;5.10;;
10094;SDS011;5086;50.830;7.102;2023-05-07T04:09:49;5.05;;;3.30;;
10094;SDS011;5086;50.830;7.102;2023-05-07T04:12:16;10.57;;;3.08;;
10094;SDS011;5086;50.830;7.102;2023-05-07T04:14:44;4.30;;;3.00;;
10094;SDS011;5086;50.830;7.102;2023-05-07T04:17:11;5.70;;;3.75;;
10094;SDS011;5086;50.830;7.102;2023-05-07T04:19:38;4.28;;;3.25;;
10094;SDS011;5086;50.830;7.102;2023-05-07T04:22:10;3.53;;;3.00;;
10094;SDS011;5086;50.830;7.102;2023-05-07T04:24:37;6.03;;;3.75;;
10094;SDS011;5086;50.830;7.102;2023-05-07T04:27:04;5.03;;;3.53;;
10094;SDS011;5086;50.830;7.102;2023-05-07T04:29:31;4.10;;;3.05;;
10094;SDS011;5086;50.830;7.102;2023-05-07T04:31:59;5.05;;;2.70;;
10094;SDS011;5086;50.830;7.102;2023-05-07T04:34:26;4.60;;;2.83;;
10094;SDS011;5086;50.830;7.102;2023-05-07T04:36:53;3.30;;;2.67;;
10094;SDS011;5086;50.830;7.102;2023-05-07T04:39:20;3.67;;;3.00;;
10094;SDS011;5086;50.830;7.102;2023-05-07T04:41:47;4.45;;;3.20;;
10094;SDS011;5086;50.830;7.102;2023-05-07T04:44:14;5.43;;;3.00;;
10094;SDS011;5086;50.830;7.102;2023-05-07T04:46:41;4.43;;;3.20;;
10094;SDS011;5086;50.830;7.102;2023-05-07T04:49:10;5.32;;;2.75;;
10094;SDS011;5086;50.830;7.102;2023-05-07T04:51:37;4.65;;;2.70;;
10094;SDS011;5086;50.830;7.102;2023-05-07T04:54:07;8.07;;;3.08;;
10094;SDS011;5086;50.830;7.102;2023-05-07T04:56:34;5.75;;;3.30;;
10094;SDS011;5086;50.830;7.102;2023-05-07T04:59:01;5.35;;;2.97;;
10094;SDS011;5086;50.830;7.102;2023-05-07T05:01:28;8.15;;;2.72;;
10094;SDS011;5086;50.830;7.102;2023-05-07T05:03:55;3.13;;;2.75;;
10094;SDS011;5086;50.830;7.102;2023-05-07T05:06:23;4.15;;;3.10;;
10094;SDS011;5086;50.830;7.102;2023-05-07T05:08:50;2.95;;;2.35;;
10094;SDS011;5086;50.830;7.102;2023-05-07T05:11:17;3.80;;;2.80;;
10094;SDS011;5086;50.830;7.102;2023-05-07T05:13:44;3.70;;;2.47;;
10094;SDS011;5086;50.830;7.102;2023-05-07T05:16:13;2.53;;;2.22;;
10094;SDS011;5086;50.830;7.102;2023-05-07T05:18:43;2.85;;;2.42;;
10094;SDS011;5086;50.830;7.102;2023-05-07T05:21:09;6.80;;;2.72;;
10094;SDS011;5086;50.830;7.102;2023-05-07T05:23:38;5.93;;;2.72;;
10094;SDS011;5086;50.830;7.102;2023-05-07T05:26:05;5.82;;;2.78;;
10094;SDS011;5086;50.830;7.102;2023-05-07T05:28:35;4.07;;;2.40;;
10094;SDS011;5086;50.830;7.102;2023-05-07T05:31:03;3.35;;;2.75;;
10094;SDS011;5086;50.830;7.102;2023-05-07T05:33:30;2.65;;;2.38;;
10094;SDS011;5086;50.830;7.102;2023-05-07T05:35:57;2.95;;;2.38;;
10094;SDS011;5086;50.830;7.102;2023-05-07T05:38:24;5.13;;;2.90;;
10094;SDS011;5086;50.830;7.102;2023-05-07T05:40:54;3.83;;;2.65;;
10094;SDS011;5086;50.830;7.102;2023-05-07T05:45:50;3.00;;;2.53;;
10094;SDS011;5086;50.830;7.102;2023-05-07T05:48:17;2.58;;;2.38;;
10094;SDS011;5086;50.830;7.102;2023-05-07T05:51:01;3.20;;;2.60;;
10094;SDS011;5086;50.830;7.102;2023-05-07T05:53:28;3.03;;;2.60;;
10094;SDS011;5086;50.830;7.102;2023-05-07T05:55:57;5.43;;;2.72;;
10094;SDS011;5086;50.830;7.102;2023-05-07T05:58:24;3.30;;;2.47;;
10094;SDS011;5086;50.830;7.102;2023-05-07T06:00:51;4.00;;;2.60;;
10094;SDS011;5086;50.830;7.102;2023-05-07T06:03:18;5.20;;;3.55;;
10094;SDS011;5086;50.830;7.102;2023-05-07T06:05:45;5.78;;;3.85;;
10094;SDS011;5086;50.830;7.102;2023-05-07T06:08:12;4.63;;;3.05;;
10094;SDS011;5086;50.830;7.102;2023-05-07T06:10:39;9.25;;;3.22;;
10094;SDS011;5086;50.830;7.102;2023-05-07T06:13:07;5.10;;;2.80;;
10094;SDS011;5086;50.830;7.102;2023-05-07T06:15:34;3.38;;;2.30;;
10094;SDS011;5086;50.830;7.102;2023-05-07T06:18:01;3.85;;;2.60;;
10094;SDS011;5086;50.830;7.102;2023-05-07T06:20:28;2.72;;;2.35;;
10094;SDS011;5086;50.830;7.102;2023-05-07T06:22:55;2.47;;;2.25;;
10094;SDS011;5086;50.830;7.102;2023-05-07T06:25:22;3.75;;;2.35;;
10094;SDS011;5086;50.830;7.102;2023-05-07T06:27:49;3.35;;;2.50;;
10094;SDS011;5086;50.830;7.102;2023-05-07T06:30:21;5.13;;;1.85;;
10094;SDS011;5086;50.830;7.102;2023-05-07T06:32:48;2.00;;;1.73;;
10094;SDS011;5086;50.830;7.102;2023-05-07T06:35:15;2.13;;;1.92;;
10094;SDS011;5086;50.830;7.102;2023-05-07T06:37:42;3.30;;;2.03;;
10094;SDS011;5086;50.830;7.102;2023-05-07T06:40:09;3.35;;;2.10;;
10094;SDS011;5086;50.830;7.102;2023-05-07T06:42:38;1.92;;;1.70;;
10094;SDS011;5086;50.830;7.102;2023-05-07T06:45:06;5.95;;;2.58;;
10094;SDS011;5086;50.830;7.102;2023-05-07T06:47:35;2.75;;;1.98;;
10094;SDS011;5086;50.830;7.102;2023-05-07T06:50:02;3.88;;;2.20;;
10094;SDS011;5086;50.830;7.102;2023-05-07T06:52:30;2.80;;;2.17;;
10094;SDS011;5086;50.830;7.102;2023-05-07T06:54:56;4.03;;;2.47;;
10094;SDS011;5086;50.830;7.102;2023-05-07T06:57:23;2.65;;;2.13;;
10094;SDS011;5086;50.830;7.102;2023-05-07T06:59:50;3.10;;;2.20;;
10094;SDS011;5086;50.830;7.102;2023-05-07T07:02:17;2.92;;;2.10;;
10094;SDS011;5086;50.830;7.102;2023-05-07T07:04:53;4.03;;;2.38;;
10094;SDS011;5086;50.830;7.102;2023-05-07T07:07:20;6.35;;;2.58;;
10094;SDS011;5086;50.830;7.102;2023-05-07T07:09:46;1.90;;;1.73;;
10094;SDS011;5086;50.830;7.102;2023-05-07T07:12:13;4.73;;;2.33;;
10094;SDS011;5086;50.830;7.102;2023-05-07T07:14:40;2.85;;;1.95;;
10094;SDS011;5086;50.830;7.102;2023-05-07T07:17:07;3.40;;;2.17;;
10094;SDS011;5086;50.830;7.102;2023-05-07T07:19:34;2.30;;;2.03;;
10094;SDS011;5086;50.830;7.102;2023-05-07T07:22:03;2.30;;;2.10;;
10094;SDS011;5086;50.830;7.102;2023-05-07T07:24:29;2.78;;;2.35;;
10094;SDS011;5086;50.830;7.102;2023-05-07T07:26:56;4.90;;;2.30;;
10094;SDS011;5086;50.830;7.102;2023-05-07T07:29:23;3.20;;;2.60;;
10094;SDS011;5086;50.830;7.102;2023-05-07T07:31:56;4.00;;;2.00;;
10094;SDS011;5086;50.830;7.102;2023-05-07T07:34:23;2.37;;;2.10;;
10094;SDS011;5086;50.830;7.102;2023-05-07T07:36:49;3.23;;;2.20;;
10094;SDS011;5086;50.830;7.102;2023-05-07T07:39:18;3.70;;;2.10;;
10094;SDS011;5086;50.830;7.102;2023-05-07T07:41:45;2.20;;;2.00;;
10094;SDS011;5086;50.830;7.102;2023-05-07T07:44:11;2.80;;;2.40;;
10094;SDS011;5086;50.830;7.102;2023-05-07T07:46:39;4.17;;;2.00;;
10094;SDS011;5086;50.830;7.102;2023-05-07T07:49:06;2.50;;;1.90;;
10094;SDS011;5086;50.830;7.102;2023-05-07T07:51:33;2.57;;;2.23;;
10094;SDS011;5086;50.830;7.102;2023-05-07T07:54:00;2.87;;;2.27;;
10094;SDS011;5086;50.830;7.102;2023-05-07T07:56:29;2.50;;;2.10;;
10094;SDS011;5086;50.830;7.102;2023-05-07T07:58:56;4.27;;;2.67;;
10094;SDS011;5086;50.830;7.102;2023-05-07T08:01:22;3.80;;;2.17;;
10094;SDS011;5086;50.830;7.102;2023-05-07T08:03:49;2.77;;;2.10;;
10094;SDS011;5086;50.830;7.102;2023-05-07T08:06:16;2.83;;;2.27;;
10094;SDS011;5086;50.830;7.102;2023-05-07T08:08:44;2.83;;;2.00;;
10094;SDS011;5086;50.830;7.102;2023-05-07T08:11:11;2.90;;;2.10;;
10094;SDS011;5086;50.830;7.102;2023-05-07T08:13:39;8.30;;;2.60;;
10094;SDS011;5086;50.830;7.102;2023-05-07T08:16:06;3.43;;;2.07;;
10094;SDS011;5086;50.830;7.102;2023-05-07T08:18:33;2.90;;;2.40;;
10094;SDS011;5086;50.830;7.102;2023-05-07T08:21:00;2.27;;;2.00;;
10094;SDS011;5086;50.830;7.102;2023-05-07T08:23:27;8.50;;;2.30;;
10094;SDS011;5086;50.830;7.102;2023-05-07T08:25:55;3.73;;;2.57;;
10094;SDS011;5086;50.830;7.102;2023-05-07T08:28:22;2.23;;;2.03;;
10094;SDS011;5086;50.830;7.102;2023-05-07T08:30:51;2.37;;;2.00;;
10094;SDS011;5086;50.830;7.102;2023-05-07T08:33:18;6.17;;;2.50;;
10094;SDS011;5086;50.830;7.102;2023-05-07T08:35:45;2.40;;;2.20;;
10094;SDS011;5086;50.830;7.102;2023-05-07T08:38:12;4.37;;;2.07;;
10094;SDS011;5086;50.830;7.102;2023-05-07T08:40:39;2.13;;;1.93;;
10094;SDS011;5086;50.830;7.102;2023-05-07T08:43:07;2.63;;;2.10;;
10094;SDS011;5086;50.830;7.102;2023-05-07T08:45:34;2.50;;;2.10;;
10094;SDS011;5086;50.830;7.102;2023-05-07T08:48:03;7.73;;;2.00;;
10094;SDS011;5086;50.830;7.102;2023-05-07T08:50:40;4.40;;;2.57;;
10094;SDS011;5086;50.830;7.102;2023-05-07T08:53:08;2.80;;;2.33;;
10094;SDS011;5086;50.830;7.102;2023-05-07T08:55:35;2.87;;;2.20;;
10094;SDS011;5086;50.830;7.102;2023-05-07T08:58:03;2.17;;;1.97;;
10094;SDS011;5086;50.830;7.102;2023-05-07T09:00:30;2.83;;;2.23;;
10094;SDS011;5086;50.830;7.102;2023-05-07T09:02:56;3.23;;;2.60;;
10094;SDS011;5086;50.830;7.102;2023-05-07T09:05:25;3.00;;;2.30;;
10094;SDS011;5086;50.830;7.102;2023-05-07T09:07:52;2.87;;;2.23;;
10094;SDS011;5086;50.830;7.102;2023-05-07T09:10:20;4.50;;;2.23;;
10094;SDS011;5086;50.830;7.102;2023-05-07T09:12:47;2.57;;;2.10;;
10094;SDS011;5086;50.830;7.102;2023-05-07T09:15:14;4.03;;;2.13;;
10094;SDS011;5086;50.830;7.102;2023-05-07T09:17:41;2.20;;;2.00;;
10094;SDS011;5086;50.830;7.102;2023-05-07T09:20:10;3.23;;;2.03;;
10094;SDS011;5086;50.830;7.102;2023-05-07T09:25:40;2.07;;;1.87;;
10094;SDS011;5086;50.830;7.102;2023-05-07T09:28:11;2.50;;;2.20;;
10094;SDS011;5086;50.830;7.102;2023-05-07T09:30:39;2.60;;;2.23;;
10094;SDS011;5086;50.830;7.102;2023-05-07T09:33:20;2.17;;;1.90;;
10094;SDS011;5086;50.830;7.102;2023-05-07T09:35:48;3.27;;;2.23;;
10094;SDS011;5086;50.830;7.102;2023-05-07T09:38:23;3.30;;;2.33;;
10094;SDS011;5086;50.830;7.102;2023-05-07T09:41:12;2.80;;;2.20;;
10094;SDS011;5086;50.830;7.102;2023-05-07T09:43:39;2.90;;;2.00;;
10094;SDS011;5086;50.830;7.102;2023-05-07T09:46:07;2.30;;;2.10;;
10094;SDS011;5086;50.830;7.102;2023-05-07T09:48:38;4.47;;;2.33;;
10094;SDS011;5086;50.830;7.102;2023-05-07T09:51:15;2.90;;;2.40;;
10094;SDS011;5086;50.830;7.102;2023-05-07T09:53:47;2.33;;;2.13;;
10094;SDS011;5086;50.830;7.102;2023-05-07T09:56:16;3.30;;;2.10;;
10094;SDS011;5086;50.830;7.102;2023-05-07T09:58:45;5.57;;;2.97;;
10094;SDS011;5086;50.830;7.102;2023-05-07T10:01:13;2.57;;;1.90;;
10094;SDS011;5086;50.830;7.102;2023-05-07T10:03:40;2.97;;;2.10;;
10094;SDS011;5086;50.830;7.102;2023-05-07T10:06:10;4.77;;;2.20;;
10094;SDS011;5086;50.830;7.102;2023-05-07T10:08:39;3.23;;;2.23;;
10094;SDS011;5086;50.830;7.102;2023-05-07T10:11:07;2.50;;;2.00;;
10094;SDS011;5086;50.830;7.102;2023-05-07T10:13:36;2.70;;;2.13;;
10094;SDS011;5086;50.830;7.102;2023-05-07T10:16:03;3.60;;;2.13;;
10094;SDS011;5086;50.830;7.102;2023-05-07T10:18:30;3.33;;;2.40;;
10094;SDS011;5086;50.830;7.102;2023-05-07T10:21:15;5.40;;;2.60;;
10094;SDS011;5086;50.830;7.102;2023-05-07T10:23:44;19.23;;;4.17;;
10094;SDS011;5086;50.830;7.102;2023-05-07T10:26:16;2.70;;;2.17;;
10094;SDS011;5086;50.830;7.102;2023-05-07T10:28:44;3.43;;;2.20;;
10094;SDS011;5086;50.830;7.102;2023-05-07T10:31:18;5.40;;;2.13;;
10094;SDS011;5086;50.830;7.102;2023-05-07T10:33:55;2.40;;;1.90;;
10094;SDS011;5086;50.830;7.102;2023-05-07T10:36:26;2.73;;;2.40;;
10094;SDS011;5086;50.830;7.102;2023-05-07T10:38:53;3.47;;;2.27;;
10094;SDS011;5086;50.830;7.102;2023-05-07T10:41:22;3.07;;;2.40;;
10094;SDS011;5086;50.830;7.102;2023-05-07T10:43:49;3.10;;;2.10;;
10094;SDS011;5086;50.830;7.102;2023-05-07T10:46:17;3.30;;;2.30;;
10094;SDS011;5086;50.830;7.102;2023-05-07T10:51:32;3.33;;;2.00;;
10094;SDS011;5086;50.830;7.102;2023-05-07T10:56:55;3.00;;;2.20;;
10094;SDS011;5086;50.830;7.102;2023-05-07T10:59:31;2.10;;;1.90;;
10094;SDS011;5086;50.830;7.102;2023-05-07T11:02:11;2.40;;;2.20;;
10094;SDS011;5086;50.830;7.102;2023-05-07T11:04:40;2.60;;;2.10;;
10094;SDS011;5086;50.830;7.102;2023-05-07T11:09:57;2.90;;;2.20;;
10094;SDS011;5086;50.830;7.102;2023-05-07T11:15:42;2.00;;;1.80;;
10094;SDS011;5086;50.830;7.102;2023-05-07T11:18:10;2.50;;;2.00;;
10094;SDS011;5086;50.830;7.102;2023-05-07T11:20:49;2.20;;;2.00;;
10094;SDS011;5086;50.830;7.102;2023-05-07T11:26:48;2.00;;;1.90;;
10094;SDS011;5086;50.830;7.102;2023-05-07T11:29:17;2.50;;;2.20;;
10094;SDS011;5086;50.830;7.102;2023-05-07T11:31:48;4.67;;;2.10;;
10094;SDS011;5086;50.830;7.102;2023-05-07T11:34:15;2.20;;;2.00;;
10094;SDS011;5086;50.830;7.102;2023-05-07T11:36:47;2.30;;;1.87;;
10094;SDS011;5086;50.830;7.102;2023-05-07T11:39:25;1.93;;;1.70;;
10094;SDS011;5086;50.830;7.102;2023-05-07T11:41:53;2.80;;;2.13;;
10094;SDS011;5086;50.830;7.102;2023-05-07T11:44:22;2.03;;;1.83;;
10094;SDS011;5086;50.830;7.102;2023-05-07T11:46:49;2.13;;;1.93;;
10094;SDS011;5086;50.830;7.102;2023-05-07T11:49:16;1.93;;;1.83;;
10094;SDS011;5086;50.830;7.102;2023-05-07T11:51:46;1.73;;;1.57;;
10094;SDS011;5086;50.830;7.102;2023-05-07T11:54:15;5.67;;;1.80;;
10094;SDS011;5086;50.830;7.102;2023-05-07T11:56:43;1.70;;;1.60;;
10094;SDS011;5086;50.830;7.102;2023-05-07T11:59:12;2.00;;;1.80;;
10094;SDS011;5086;50.830;7.102;2023-05-07T12:01:46;2.30;;;1.83;;
10094;SDS011;5086;50.830;7.102;2023-05-07T12:04:14;2.20;;;1.97;;
10094;SDS011;5086;50.830;7.102;2023-05-07T12:06:45;2.10;;;1.90;;
10094;SDS011;5086;50.830;7.102;2023-05-07T12:09:12;9.13;;;2.00;;
10094;SDS011;5086;50.830;7.102;2023-05-07T12:11:39;1.97;;;1.80;;
10094;SDS011;5086;50.830;7.102;2023-05-07T12:14:06;2.60;;;1.90;;
10094;SDS011;5086;50.830;7.102;2023-05-07T12:16:33;2.07;;;1.87;;
10094;SDS011;5086;50.830;7.102;2023-05-07T12:19:01;2.23;;;2.03;;
10094;SDS011;5086;50.830;7.102;2023-05-07T12:21:28;2.10;;;1.90;;
10094;SDS011;5086;50.830;7.102;2023-05-07T12:23:56;1.97;;;1.87;;
10094;SDS011;5086;50.830;7.102;2023-05-07T12:26:25;2.70;;;2.03;;
10094;SDS011;5086;50.830;7.102;2023-05-07T12:28:52;4.63;;;1.90;;
10094;SDS011;5086;50.830;7.102;2023-05-07T12:31:18;3.23;;;1.90;;
10094;SDS011;5086;50.830;7.102;2023-05-07T12:33:45;2.03;;;1.83;;
10094;SDS011;5086;50.830;7.102;2023-05-07T12:36:14;2.30;;;1.70;;
10094;SDS011;5086;50.830;7.102;2023-05-07T12:38:44;3.73;;;1.90;;
10094;SDS011;5086;50.830;7.102;2023-05-07T12:41:17;2.03;;;1.93;;
10094;SDS011;5086;50.830;7.102;2023-05-07T12:43:50;3.20;;;1.70;;
10094;SDS011;5086;50.830;7.102;2023-05-07T12:46:22;3.83;;;1.97;;
10094;SDS011;5086;50.830;7.102;2023-05-07T12:48:49;1.73;;;1.63;;
10094;SDS011;5086;50.830;7.102;2023-05-07T12:51:19;2.87;;;1.73;;
10094;SDS011;5086;50.830;7.102;2023-05-07T12:53:46;4.97;;;2.20;;
10094;SDS011;5086;50.830;7.102;2023-05-07T12:56:16;2.50;;;1.60;;
10094;SDS011;5086;50.830;7.102;2023-05-07T12:58:43;13.50;;;2.60;;
10094;SDS011;5086;50.830;7.102;2023-05-07T13:01:10;4.10;;;2.20;;
10094;SDS011;5086;50.830;7.102;2023-05-07T13:03:40;2.17;;;1.97;;
10094;SDS011;5086;50.830;7.102;2023-05-07T13:06:08;2.40;;;2.20;;
10094;SDS011;5086;50.830;7.102;2023-05-07T13:08:39;2.33;;;2.13;;
10094;SDS011;5086;50.830;7.102;2023-05-07T13:11:10;2.50;;;2.30;;
10094;SDS011;5086;50.830;7.102;2023-05-07T13:13:44;1.90;;;1.80;;
10094;SDS011;5086;50.830;7.102;2023-05-07T13:16:17;2.10;;;1.90;;
10094;SDS011;5086;50.830;7.102;2023-05-07T13:18:49;3.83;;;2.43;;
10094;SDS011;5086;50.830;7.102;2023-05-07T13:21:16;1.93;;;1.73;;
10094;SDS011;5086;50.830;7.102;2023-05-07T13:23:45;2.37;;;2.00;;
10094;SDS011;5086;50.830;7.102;2023-05-07T13:26:12;3.47;;;1.83;;
10094;SDS011;5086;50.830;7.102;2023-05-07T13:28:41;3.40;;;2.23;;
10094;SDS011;5086;50.830;7.102;2023-05-07T13:31:08;3.07;;;2.20;;
10094;SDS011;5086;50.830;7.102;2023-05-07T13:33:35;2.70;;;2.00;;
10094;SDS011;5086;50.830;7.102;2023-05-07T13:36:03;2.10;;;1.90;;
10094;SDS011;5086;50.830;7.102;2023-05-07T13:38:30;2.40;;;1.90;;
10094;SDS011;5086;50.830;7.102;2023-05-07T13:41:04;3.93;;;2.63;;
10094;SDS011;5086;50.830;7.102;2023-05-07T13:43:31;2.17;;;1.70;;
10094;SDS011;5086;50.830;7.102;2023-05-07T13:45:59;2.50;;;2.30;;
10094;SDS011;5086;50.830;7.102;2023-05-07T13:48:26;4.60;;;2.40;;
10094;SDS011;5086;50.830;7.102;2023-05-07T13:50:53;2.37;;;2.17;;
10094;SDS011;5086;50.830;7.102;2023-05-07T13:53:20;2.33;;;2.13;;
10094;SDS011;5086;50.830;7.102;2023-05-07T13:55:47;1.90;;;1.80;;
10094;SDS011;5086;50.830;7.102;2023-05-07T13:58:15;3.30;;;2.13;;
10094;SDS011;5086;50.830;7.102;2023-05-07T14:00:42;2.30;;;2.10;;
10094;SDS011;5086;50.830;7.102;2023-05-07T14:03:09;3.47;;;2.50;;
10094;SDS011;5086;50.830;7.102;2023-05-07T14:05:36;2.60;;;2.40;;
10094;SDS011;5086;50.830;7.102;2023-05-07T14:08:02;3.67;;;2.60;;
10094;SDS011;5086;50.830;7.102;2023-05-07T14:10:30;4.77;;;2.93;;
10094;SDS011;5086;50.830;7.102;2023-05-07T14:12:59;5.40;;;2.60;;
10094;SDS011;5086;50.830;7.102;2023-05-07T14:15:27;3.87;;;2.40;;
10094;SDS011;5086;50.830;7.102;2023-05-07T14:17:54;2.73;;;2.53;;
10094;SDS011;5086;50.830;7.102;2023-05-07T14:20:22;4.53;;;2.50;;
10094;SDS011;5086;50.830;7.102;2023-05-07T14:22:49;4.50;;;3.30;;
10094;SDS011;5086;50.830;7.102;2023-05-07T14:25:17;4.70;;;2.50;;
10094;SDS011;5086;50.830;7.102;2023-05-07T14:27:44;2.53;;;2.33;;
10094;SDS011;5086;50.830;7.102;2023-05-07T14:30:11;8.73;;;2.70;;
10094;SDS011;5086;50.830;7.102;2023-05-07T14:32:40;3.90;;;2.70;;
10094;SDS011;5086;50.830;7.102;2023-05-07T14:35:07;3.13;;;2.70;;
10094;SDS011;5086;50.830;7.102;2023-05-07T14:37:34;3.40;;;2.57;;
10094;SDS011;5086;50.830;7.102;2023-05-07T14:40:01;4.20;;;3.13;;
10094;SDS011;5086;50.830;7.102;2023-05-07T14:42:28;3.13;;;2.80;;
10094;SDS011;5086;50.830;7.102;2023-05-07T14:44:55;4.43;;;2.80;;
10094;SDS011;5086;50.830;7.102;2023-05-07T14:47:22;8.77;;;3.07;;
10094;SDS011;5086;50.830;7.102;2023-05-07T14:49:50;3.90;;;3.10;;
10094;SDS011;5086;50.830;7.102;2023-05-07T14:52:18;4.93;;;2.97;;
10094;SDS011;5086;50.830;7.102;2023-05-07T14:54:45;5.30;;;2.90;;
10094;SDS011;5086;50.830;7.102;2023-05-07T14:57:12;4.17;;;2.90;;
10094;SDS011;5086;50.830;7.102;2023-05-07T14:59:41;3.53;;;2.37;;
10094;SDS011;5086;50.830;7.102;2023-05-07T15:02:09;8.63;;;2.50;;
10094;SDS011;5086;50.830;7.102;2023-05-07T15:04:37;6.00;;;1.90;;
10094;SDS011;5086;50.830;7.102;2023-05-07T15:07:06;2.40;;;2.10;;
10094;SDS011;5086;50.830;7.102;2023-05-07T15:09:33;3.13;;;2.30;;
10094;SDS011;5086;50.830;7.102;2023-05-07T15:12:00;3.23;;;2.10;;
10094;SDS011;5086;50.830;7.102;2023-05-07T15:14:29;4.93;;;2.40;;
10094;SDS011;5086;50.830;7.102;2023-05-07T15:16:55;2.80;;;2.30;;
10094;SDS011;5086;50.830;7.102;2023-05-07T15:19:22;7.73;;;2.40;;
10094;SDS011;5086;50.830;7.102;2023-05-07T15:21:53;2.40;;;2.10;;
10094;SDS011;5086;50.830;7.102;2023-05-07T15:24:23;2.40;;;2.20;;
10094;SDS011;5086;50.830;7.102;2023-05-07T15:26:51;2.50;;;2.00;;